sensor_id;sensor_type;location;lat;lon;timestamp;pressure;altitude;pressure_sealevel;temperature;humidity
12799;BME280;19250;42.646;26.980;2023-02-12T00:00:37;99919.22;;;1.83;43.90
12799;BME280;19250;42.646;26.980;2023-02-12T00:03:04;99909.34;;;1.71;43.70
12799;BME280;19250;42.646;26.980;2023-02-12T00:05:31;99935.53;;;1.72;43.85
12799;BME280;19250;42.646;26.980;2023-02-12T00:07:59;99949.75;;;1.85;44.38
12799;BME280;19250;42.646;26.980;2023-02-12T00:10:26;99945.56;;;1.98;43.76
12799;BME280;19250;42.646;26.980;2023-02-12T00:12:53;99954.91;;;1.20;45.71
12799;BME280;19250;42.646;26.980;2023-02-12T00:15:21;99935.59;;;1.55;45.29
12799;BME280;19250;42.646;26.980;2023-02-12T00:17:53;99944.44;;;0.29;48.68
12799;BME280;19250;42.646;26.980;2023-02-12T00:20:20;99939.19;;;-0.67;53.33
12799;BME280;19250;42.646;26.980;2023-02-12T00:22:47;99939.81;;;-1.02;54.56
12799;BME280;19250;42.646;26.980;2023-02-12T00:25:14;99941.13;;;-0.52;53.69
12799;BME280;19250;42.646;26.980;2023-02-12T00:27:43;99937.84;;;0.02;51.71
12799;BME280;19250;42.646;26.980;2023-02-12T00:30:11;99929.38;;;0.70;49.09
12799;BME280;19250;42.646;26.980;2023-02-12T00:32:39;99932.16;;;0.84;48.07
12799;BME280;19250;42.646;26.980;2023-02-12T00:35:08;99929.41;;;-0.05;50.84
12799;BME280;19250;42.646;26.980;2023-02-12T00:37:35;99923.47;;;0.48;50.13
12799;BME280;19250;42.646;26.980;2023-02-12T00:40:03;99922.44;;;0.69;48.89
12799;BME280;19250;42.646;26.980;2023-02-12T00:42:31;99919.44;;;1.11;47.89
12799;BME280;19250;42.646;26.980;2023-02-12T00:44:58;99914.25;;;1.44;46.68
12799;BME280;19250;42.646;26.980;2023-02-12T00:47:25;99918.34;;;1.32;46.70
12799;BME280;19250;42.646;26.980;2023-02-12T00:49:53;99918.44;;;1.48;46.44
12799;BME280;19250;42.646;26.980;2023-02-12T00:52:21;99925.75;;;0.90;48.16
12799;BME280;19250;42.646;26.980;2023-02-12T00:54:48;99918.94;;;0.69;49.74
12799;BME280;19250;42.646;26.980;2023-02-12T00:57:16;99916.81;;;0.94;49.12
12799;BME280;19250;42.646;26.980;2023-02-12T00:59:43;99915.41;;;1.38;47.66
12799;BME280;19250;42.646;26.980;2023-02-12T01:02:10;99910.38;;;1.51;47.03
12799;BME280;19250;42.646;26.980;2023-02-12T01:04:38;99913.47;;;1.59;46.47
12799;BME280;19250;42.646;26.980;2023-02-12T01:07:05;99910.47;;;1.82;45.56
12799;BME280;19250;42.646;26.980;2023-02-12T01:09:33;99916.34;;;1.87;45.02
12799;BME280;19250;42.646;26.980;2023-02-12T01:12:01;99911.78;;;1.58;45.94
12799;BME280;19250;42.646;26.980;2023-02-12T01:14:28;99900.84;;;1.65;46.34
12799;BME280;19250;42.646;26.980;2023-02-12T01:16:55;99902.16;;;1.90;45.68
12799;BME280;19250;42.646;26.980;2023-02-12T01:19:23;99899.97;;;1.82;45.98
12799;BME280;19250;42.646;26.980;2023-02-12T01:21:50;99900.75;;;2.00;45.91
12799;BME280;19250;42.646;26.980;2023-02-12T01:24:17;99903.03;;;1.90;45.82
12799;BME280;19250;42.646;26.980;2023-02-12T01:26:47;99895.78;;;1.78;46.34
12799;BME280;19250;42.646;26.980;2023-02-12T01:29:14;99900.50;;;2.04;45.93
12799;BME280;19250;42.646;26.980;2023-02-12T01:31:41;99898.41;;;1.78;44.89
12799;BME280;19250;42.646;26.980;2023-02-12T01:34:09;99847.03;;;0.37;47.39
12799;BME280;19250;42.646;26.980;2023-02-12T01:36:37;99901.72;;;0.63;48.04
12799;BME280;19250;42.646;26.980;2023-02-12T01:39:05;99896.94;;;0.71;47.29
12799;BME280;19250;42.646;26.980;2023-02-12T01:41:35;99898.38;;;0.42;48.44
12799;BME280;19250;42.646;26.980;2023-02-12T01:44:16;99903.75;;;0.39;48.92
12799;BME280;19250;42.646;26.980;2023-02-12T01:46:44;99906.81;;;0.30;49.46
12799;BME280;19250;42.646;26.980;2023-02-12T01:49:14;99907.16;;;0.23;49.18
12799;BME280;19250;42.646;26.980;2023-02-12T01:51:43;99909.78;;;0.41;49.02
12799;BME280;19250;42.646;26.980;2023-02-12T01:54:14;99905.22;;;0.09;49.71
12799;BME280;19250;42.646;26.980;2023-02-12T01:56:43;99907.59;;;0.32;49.59
12799;BME280;19250;42.646;26.980;2023-02-12T01:59:12;99900.47;;;1.06;47.49
12799;BME280;19250;42.646;26.980;2023-02-12T02:01:39;99897.66;;;1.26;46.91
12799;BME280;19250;42.646;26.980;2023-02-12T02:04:09;99891.44;;;1.44;46.44
12799;BME280;19250;42.646;26.980;2023-02-12T02:06:42;99881.88;;;1.76;45.42
12799;BME280;19250;42.646;26.980;2023-02-12T02:09:12;99889.50;;;1.81;45.22
12799;BME280;19250;42.646;26.980;2023-02-12T02:11:39;99876.84;;;2.04;44.40
12799;BME280;19250;42.646;26.980;2023-02-12T02:14:25;99881.63;;;1.81;44.79
12799;BME280;19250;42.646;26.980;2023-02-12T02:20:25;99872.72;;;1.68;45.45
12799;BME280;19250;42.646;26.980;2023-02-12T02:23:08;99869.81;;;1.06;46.01
12799;BME280;19250;42.646;26.980;2023-02-12T02:25:56;99871.03;;;0.82;47.94
12799;BME280;19250;42.646;26.980;2023-02-12T02:28:57;99866.63;;;1.50;45.74
12799;BME280;19250;42.646;26.980;2023-02-12T02:31:31;99878.34;;;1.77;45.61
12799;BME280;19250;42.646;26.980;2023-02-12T02:34:07;99878.19;;;1.80;44.87
12799;BME280;19250;42.646;26.980;2023-02-12T02:36:40;99886.56;;;1.87;44.65
12799;BME280;19250;42.646;26.980;2023-02-12T02:39:16;99877.34;;;1.95;43.96
12799;BME280;19250;42.646;26.980;2023-02-12T02:41:49;99879.28;;;2.39;43.61
12799;BME280;19250;42.646;26.980;2023-02-12T02:44:25;99873.75;;;2.59;42.98
12799;BME280;19250;42.646;26.980;2023-02-12T02:46:56;99877.25;;;2.44;43.09
12799;BME280;19250;42.646;26.980;2023-02-12T02:49:26;99875.13;;;2.66;43.30
12799;BME280;19250;42.646;26.980;2023-02-12T02:52:00;99882.34;;;2.47;43.47
12799;BME280;19250;42.646;26.980;2023-02-12T02:54:31;99882.47;;;1.81;43.83
12799;BME280;19250;42.646;26.980;2023-02-12T02:57:15;99878.50;;;1.90;44.27
12799;BME280;19250;42.646;26.980;2023-02-12T02:59:48;99878.59;;;1.05;46.25
12799;BME280;19250;42.646;26.980;2023-02-12T03:02:21;99869.03;;;1.54;45.90
12799;BME280;19250;42.646;26.980;2023-02-12T03:04:54;99876.28;;;0.99;46.81
12799;BME280;19250;42.646;26.980;2023-02-12T03:07:26;99868.94;;;0.89;47.40
12799;BME280;19250;42.646;26.980;2023-02-12T03:09:58;99864.56;;;1.06;47.88
12799;BME280;19250;42.646;26.980;2023-02-12T03:12:31;99859.34;;;1.39;46.61
12799;BME280;19250;42.646;26.980;2023-02-12T03:15:02;99862.38;;;1.15;48.15
12799;BME280;19250;42.646;26.980;2023-02-12T03:17:38;99853.38;;;1.36;47.90
12799;BME280;19250;42.646;26.980;2023-02-12T03:20:12;99857.22;;;1.46;47.76
12799;BME280;19250;42.646;26.980;2023-02-12T03:22:43;99855.06;;;1.70;46.97
12799;BME280;19250;42.646;26.980;2023-02-12T03:25:17;99850.00;;;1.82;46.77
12799;BME280;19250;42.646;26.980;2023-02-12T03:27:51;99854.94;;;1.88;46.94
12799;BME280;19250;42.646;26.980;2023-02-12T03:30:23;99849.09;;;1.83;47.14
12799;BME280;19250;42.646;26.980;2023-02-12T03:33:06;99852.81;;;1.79;47.40
12799;BME280;19250;42.646;26.980;2023-02-12T03:35:41;99845.75;;;1.64;47.97
12799;BME280;19250;42.646;26.980;2023-02-12T03:38:15;99848.91;;;2.17;46.52
12799;BME280;19250;42.646;26.980;2023-02-12T03:40:52;99840.25;;;2.77;44.82
12799;BME280;19250;42.646;26.980;2023-02-12T03:43:27;99853.59;;;3.03;44.05
12799;BME280;19250;42.646;26.980;2023-02-12T03:45:58;99815.22;;;2.99;43.46
12799;BME280;19250;42.646;26.980;2023-02-12T03:48:32;99848.78;;;2.96;43.69
12799;BME280;19250;42.646;26.980;2023-02-12T03:51:08;99750.63;;;2.34;43.96
12799;BME280;19250;42.646;26.980;2023-02-12T03:53:37;99841.94;;;3.07;43.38
12799;BME280;19250;42.646;26.980;2023-02-12T03:56:07;99839.22;;;1.87;46.88
12799;BME280;19250;42.646;26.980;2023-02-12T03:58:37;99833.19;;;1.69;48.53
12799;BME280;19250;42.646;26.980;2023-02-12T04:01:07;99836.88;;;2.29;46.79
12799;BME280;19250;42.646;26.980;2023-02-12T04:03:36;99828.13;;;2.74;45.80
12799;BME280;19250;42.646;26.980;2023-02-12T04:06:04;99835.50;;;2.83;45.07
12799;BME280;19250;42.646;26.980;2023-02-12T04:08:31;99837.38;;;2.81;44.92
12799;BME280;19250;42.646;26.980;2023-02-12T04:11:05;99841.88;;;2.18;46.09
12799;BME280;19250;42.646;26.980;2023-02-12T04:13:41;99847.13;;;2.34;46.02
12799;BME280;19250;42.646;26.980;2023-02-12T04:16:19;99854.44;;;2.13;46.21
12799;BME280;19250;42.646;26.980;2023-02-12T04:18:50;99850.78;;;2.00;46.54
12799;BME280;19250;42.646;26.980;2023-02-12T04:21:27;99855.34;;;1.81;48.10
12799;BME280;19250;42.646;26.980;2023-02-12T04:24:05;99864.13;;;2.12;46.88
12799;BME280;19250;42.646;26.980;2023-02-12T04:26:47;99866.84;;;1.95;47.56
12799;BME280;19250;42.646;26.980;2023-02-12T04:29:18;99872.00;;;2.28;47.39
12799;BME280;19250;42.646;26.980;2023-02-12T04:31:55;99864.88;;;2.14;46.89
12799;BME280;19250;42.646;26.980;2023-02-12T04:34:30;99872.75;;;1.99;47.48
12799;BME280;19250;42.646;26.980;2023-02-12T04:37:03;99879.31;;;1.75;49.17
12799;BME280;19250;42.646;26.980;2023-02-12T04:39:34;99881.88;;;1.76;48.47
12799;BME280;19250;42.646;26.980;2023-02-12T04:42:03;99895.56;;;1.33;50.92
12799;BME280;19250;42.646;26.980;2023-02-12T04:44:32;99887.16;;;1.76;49.07
12799;BME280;19250;42.646;26.980;2023-02-12T04:47:00;99882.88;;;1.58;49.62
12799;BME280;19250;42.646;26.980;2023-02-12T04:49:29;99892.56;;;1.73;49.58
12799;BME280;19250;42.646;26.980;2023-02-12T04:51:56;99895.59;;;1.98;48.23
12799;BME280;19250;42.646;26.980;2023-02-12T04:54:41;99908.75;;;1.98;48.39
12799;BME280;19250;42.646;26.980;2023-02-12T04:57:09;99901.09;;;2.09;48.05
12799;BME280;19250;42.646;26.980;2023-02-12T04:59:36;99909.16;;;2.06;47.86
12799;BME280;19250;42.646;26.980;2023-02-12T05:02:03;99902.34;;;1.87;48.58
12799;BME280;19250;42.646;26.980;2023-02-12T05:04:32;99904.28;;;1.50;49.55
12799;BME280;19250;42.646;26.980;2023-02-12T05:06:59;99900.78;;;1.50;49.84
12799;BME280;19250;42.646;26.980;2023-02-12T05:09:26;99904.31;;;1.83;48.76
12799;BME280;19250;42.646;26.980;2023-02-12T05:11:54;99915.91;;;1.79;47.78
12799;BME280;19250;42.646;26.980;2023-02-12T05:14:23;99870.56;;;0.91;50.49
12799;BME280;19250;42.646;26.980;2023-02-12T05:16:51;99921.72;;;1.69;49.72
12799;BME280;19250;42.646;26.980;2023-02-12T05:19:18;99929.44;;;2.04;48.11
12799;BME280;19250;42.646;26.980;2023-02-12T05:21:48;99929.66;;;1.34;49.46
12799;BME280;19250;42.646;26.980;2023-02-12T05:24:16;99934.84;;;1.19;51.30
12799;BME280;19250;42.646;26.980;2023-02-12T05:26:43;99935.91;;;0.62;55.23
12799;BME280;19250;42.646;26.980;2023-02-12T05:29:10;99944.31;;;1.38;53.20
12799;BME280;19250;42.646;26.980;2023-02-12T05:31:38;99949.53;;;1.73;51.43
12799;BME280;19250;42.646;26.980;2023-02-12T05:34:07;99946.31;;;2.00;50.50
12799;BME280;19250;42.646;26.980;2023-02-12T05:36:35;99923.53;;;2.16;49.45
12799;BME280;19250;42.646;26.980;2023-02-12T05:39:04;99955.22;;;1.48;51.48
12799;BME280;19250;42.646;26.980;2023-02-12T05:41:32;99964.94;;;0.94;55.34
12799;BME280;19250;42.646;26.980;2023-02-12T05:44:00;99960.97;;;1.89;52.29
12799;BME280;19250;42.646;26.980;2023-02-12T05:46:28;99964.06;;;2.12;50.88
12799;BME280;19250;42.646;26.980;2023-02-12T05:48:55;99974.00;;;0.70;56.51
12799;BME280;19250;42.646;26.980;2023-02-12T05:51:24;99965.00;;;0.57;55.79
12799;BME280;19250;42.646;26.980;2023-02-12T05:53:54;99969.88;;;0.46;54.90
12799;BME280;19250;42.646;26.980;2023-02-12T05:56:25;99968.06;;;0.84;53.28
12799;BME280;19250;42.646;26.980;2023-02-12T05:58:54;99975.75;;;0.88;49.60
12799;BME280;19250;42.646;26.980;2023-02-12T06:01:25;99977.22;;;2.12;47.59
12799;BME280;19250;42.646;26.980;2023-02-12T06:03:53;99973.53;;;1.99;45.01
12799;BME280;19250;42.646;26.980;2023-02-12T06:06:20;99986.75;;;1.31;46.79
12799;BME280;19250;42.646;26.980;2023-02-12T06:08:47;99981.84;;;1.92;45.73
12799;BME280;19250;42.646;26.980;2023-02-12T06:11:15;99988.88;;;2.40;44.53
12799;BME280;19250;42.646;26.980;2023-02-12T06:13:45;99996.53;;;2.75;43.07
12799;BME280;19250;42.646;26.980;2023-02-12T06:16:17;99994.00;;;3.05;42.54
12799;BME280;19250;42.646;26.980;2023-02-12T06:18:46;99989.13;;;3.43;41.54
12799;BME280;19250;42.646;26.980;2023-02-12T06:21:14;99993.38;;;3.16;41.90
12799;BME280;19250;42.646;26.980;2023-02-12T06:23:42;99993.19;;;3.49;41.96
12799;BME280;19250;42.646;26.980;2023-02-12T06:26:09;99985.63;;;3.43;41.54
12799;BME280;19250;42.646;26.980;2023-02-12T06:28:37;99996.13;;;3.88;40.96
12799;BME280;19250;42.646;26.980;2023-02-12T06:31:16;99994.19;;;3.62;40.95
12799;BME280;19250;42.646;26.980;2023-02-12T06:33:44;100005.94;;;4.00;40.86
12799;BME280;19250;42.646;26.980;2023-02-12T06:36:12;100003.31;;;4.00;40.67
12799;BME280;19250;42.646;26.980;2023-02-12T06:38:39;100004.44;;;4.24;40.62
12799;BME280;19250;42.646;26.980;2023-02-12T06:41:06;100005.94;;;4.28;40.41
12799;BME280;19250;42.646;26.980;2023-02-12T06:43:34;100005.75;;;4.17;40.42
12799;BME280;19250;42.646;26.980;2023-02-12T06:46:02;99998.47;;;4.07;40.58
12799;BME280;19250;42.646;26.980;2023-02-12T06:48:31;100001.69;;;4.54;39.96
12799;BME280;19250;42.646;26.980;2023-02-12T06:51:04;100003.69;;;3.94;40.83
12799;BME280;19250;42.646;26.980;2023-02-12T06:53:33;99958.06;;;3.18;42.18
12799;BME280;19250;42.646;26.980;2023-02-12T06:56:01;100002.69;;;3.81;42.21
12799;BME280;19250;42.646;26.980;2023-02-12T06:58:28;100002.53;;;3.98;42.40
12799;BME280;19250;42.646;26.980;2023-02-12T07:00:55;99999.72;;;3.57;43.58
12799;BME280;19250;42.646;26.980;2023-02-12T07:03:23;100004.06;;;3.28;44.80
12799;BME280;19250;42.646;26.980;2023-02-12T07:05:51;99997.91;;;3.58;45.36
12799;BME280;19250;42.646;26.980;2023-02-12T07:08:19;100003.19;;;3.58;45.77
12799;BME280;19250;42.646;26.980;2023-02-12T07:10:48;99973.81;;;3.20;47.03
12799;BME280;19250;42.646;26.980;2023-02-12T07:13:15;100009.59;;;3.54;46.48
12799;BME280;19250;42.646;26.980;2023-02-12T07:15:43;100011.09;;;4.02;46.55
12799;BME280;19250;42.646;26.980;2023-02-12T07:18:10;100004.53;;;4.37;45.34
12799;BME280;19250;42.646;26.980;2023-02-12T07:20:37;100014.69;;;4.57;44.95
12799;BME280;19250;42.646;26.980;2023-02-12T07:23:06;100019.69;;;4.76;44.31
12799;BME280;19250;42.646;26.980;2023-02-12T07:25:36;100019.81;;;4.87;44.29
12799;BME280;19250;42.646;26.980;2023-02-12T07:28:04;100008.91;;;4.65;44.89
12799;BME280;19250;42.646;26.980;2023-02-12T07:30:31;100016.97;;;4.49;45.28
12799;BME280;19250;42.646;26.980;2023-02-12T07:32:58;100019.34;;;4.39;45.54
12799;BME280;19250;42.646;26.980;2023-02-12T07:35:25;100011.84;;;4.04;46.48
12799;BME280;19250;42.646;26.980;2023-02-12T07:37:53;100024.97;;;4.05;46.89
12799;BME280;19250;42.646;26.980;2023-02-12T07:40:21;100018.22;;;3.85;47.66
12799;BME280;19250;42.646;26.980;2023-02-12T07:42:53;100016.88;;;4.22;47.40
12799;BME280;19250;42.646;26.980;2023-02-12T07:45:21;100011.22;;;4.14;47.65
12799;BME280;19250;42.646;26.980;2023-02-12T07:47:49;100000.47;;;4.03;48.19
12799;BME280;19250;42.646;26.980;2023-02-12T07:50:16;100006.69;;;4.16;47.90
12799;BME280;19250;42.646;26.980;2023-02-12T07:52:44;100009.72;;;4.24;47.67
12799;BME280;19250;42.646;26.980;2023-02-12T07:55:11;100003.00;;;4.47;47.34
12799;BME280;19250;42.646;26.980;2023-02-12T07:57:40;100004.22;;;4.56;46.87
12799;BME280;19250;42.646;26.980;2023-02-12T08:00:09;100005.81;;;4.72;47.04
12799;BME280;19250;42.646;26.980;2023-02-12T08:02:36;99998.47;;;5.31;45.85
12799;BME280;19250;42.646;26.980;2023-02-12T08:05:04;100004.19;;;5.37;45.41
12799;BME280;19250;42.646;26.980;2023-02-12T08:07:31;100008.38;;;5.27;45.45
12799;BME280;19250;42.646;26.980;2023-02-12T08:09:58;100014.03;;;5.87;44.73
12799;BME280;19250;42.646;26.980;2023-02-12T08:12:25;100021.38;;;6.09;44.01
12799;BME280;19250;42.646;26.980;2023-02-12T08:14:54;100019.34;;;6.63;42.81
12799;BME280;19250;42.646;26.980;2023-02-12T08:17:21;100017.94;;;6.70;42.49
12799;BME280;19250;42.646;26.980;2023-02-12T08:19:49;100024.78;;;6.85;42.14
12799;BME280;19250;42.646;26.980;2023-02-12T08:22:16;100024.31;;;6.68;42.36
12799;BME280;19250;42.646;26.980;2023-02-12T08:24:43;100023.38;;;6.43;43.53
12799;BME280;19250;42.646;26.980;2023-02-12T08:27:10;100021.16;;;6.50;43.63
12799;BME280;19250;42.646;26.980;2023-02-12T08:29:38;100018.06;;;7.05;42.74
12799;BME280;19250;42.646;26.980;2023-02-12T08:32:06;100019.34;;;7.47;41.65
12799;BME280;19250;42.646;26.980;2023-02-12T08:34:38;100011.88;;;7.76;41.23
12799;BME280;19250;42.646;26.980;2023-02-12T08:37:05;100022.50;;;7.76;41.04
12799;BME280;19250;42.646;26.980;2023-02-12T08:39:33;100030.03;;;7.58;41.52
12799;BME280;19250;42.646;26.980;2023-02-12T08:42:00;100025.16;;;7.87;41.09
12799;BME280;19250;42.646;26.980;2023-02-12T08:44:28;100005.66;;;7.99;40.78
12799;BME280;19250;42.646;26.980;2023-02-12T08:46:55;100030.94;;;8.15;40.37
12799;BME280;19250;42.646;26.980;2023-02-12T08:49:26;100024.28;;;8.10;39.98
12799;BME280;19250;42.646;26.980;2023-02-12T08:51:55;100037.31;;;8.13;40.13
12799;BME280;19250;42.646;26.980;2023-02-12T08:54:23;100035.34;;;8.83;38.94
12799;BME280;19250;42.646;26.980;2023-02-12T08:56:54;100011.41;;;8.72;38.43
12799;BME280;19250;42.646;26.980;2023-02-12T08:59:22;100041.72;;;8.36;39.12
12799;BME280;19250;42.646;26.980;2023-02-12T09:01:49;100044.28;;;8.60;39.17
12799;BME280;19250;42.646;26.980;2023-02-12T09:04:19;100039.09;;;8.81;38.89
12799;BME280;19250;42.646;26.980;2023-02-12T09:06:49;100044.38;;;9.03;38.43
12799;BME280;19250;42.646;26.980;2023-02-12T09:09:17;100034.19;;;9.19;38.41
12799;BME280;19250;42.646;26.980;2023-02-12T09:11:45;100039.31;;;9.00;36.80
12799;BME280;19250;42.646;26.980;2023-02-12T09:14:14;100041.25;;;8.98;36.03
12799;BME280;19250;42.646;26.980;2023-02-12T09:16:42;100043.44;;;8.93;36.46
12799;BME280;19250;42.646;26.980;2023-02-12T09:19:12;100048.28;;;8.99;36.09
12799;BME280;19250;42.646;26.980;2023-02-12T09:21:40;100045.72;;;8.97;35.79
12799;BME280;19250;42.646;26.980;2023-02-12T09:24:09;100056.56;;;9.05;35.68
12799;BME280;19250;42.646;26.980;2023-02-12T09:26:36;100056.81;;;9.02;34.87
12799;BME280;19250;42.646;26.980;2023-02-12T09:29:05;100055.50;;;9.08;35.34
12799;BME280;19250;42.646;26.980;2023-02-12T09:31:32;100064.22;;;8.99;35.32
12799;BME280;19250;42.646;26.980;2023-02-12T09:34:01;100060.25;;;8.71;35.23
12799;BME280;19250;42.646;26.980;2023-02-12T09:36:29;100069.06;;;9.05;34.98
12799;BME280;19250;42.646;26.980;2023-02-12T09:38:57;100063.25;;;10.06;33.47
12799;BME280;19250;42.646;26.980;2023-02-12T09:44:33;100068.38;;;9.77;34.07
12799;BME280;19250;42.646;26.980;2023-02-12T09:47:07;100048.84;;;9.56;33.78
12799;BME280;19250;42.646;26.980;2023-02-12T09:49:48;100070.22;;;9.98;33.27
12799;BME280;19250;42.646;26.980;2023-02-12T09:52:25;100054.72;;;10.03;33.43
12799;BME280;19250;42.646;26.980;2023-02-12T09:54:54;100067.50;;;10.09;33.21
12799;BME280;19250;42.646;26.980;2023-02-12T09:57:26;100069.16;;;9.68;33.95
12799;BME280;19250;42.646;26.980;2023-02-12T09:59:58;100070.47;;;9.31;34.16
12799;BME280;19250;42.646;26.980;2023-02-12T10:02:26;100065.53;;;9.58;34.29
12799;BME280;19250;42.646;26.980;2023-02-12T10:04:54;100063.69;;;9.70;33.91
12799;BME280;19250;42.646;26.980;2023-02-12T10:07:39;100073.56;;;9.79;33.74
12799;BME280;19250;42.646;26.980;2023-02-12T10:10:31;100073.38;;;9.71;33.94
12799;BME280;19250;42.646;26.980;2023-02-12T10:13:06;100081.25;;;9.61;33.96
12799;BME280;19250;42.646;26.980;2023-02-12T10:15:37;100076.69;;;9.52;34.34
12799;BME280;19250;42.646;26.980;2023-02-12T10:18:28;100072.50;;;9.70;34.14
12799;BME280;19250;42.646;26.980;2023-02-12T10:21:06;100074.91;;;9.42;34.32
12799;BME280;19250;42.646;26.980;2023-02-12T10:24:02;100075.56;;;9.66;34.33
12799;BME280;19250;42.646;26.980;2023-02-12T10:26:34;100049.09;;;9.85;33.86
12799;BME280;19250;42.646;26.980;2023-02-12T10:29:11;100073.72;;;9.77;34.03
12799;BME280;19250;42.646;26.980;2023-02-12T10:31:41;100081.97;;;9.95;34.19
12799;BME280;19250;42.646;26.980;2023-02-12T10:34:16;100082.47;;;9.57;34.34
12799;BME280;19250;42.646;26.980;2023-02-12T10:36:47;100086.44;;;9.09;35.16
12799;BME280;19250;42.646;26.980;2023-02-12T10:39:19;100084.81;;;9.40;34.92
12799;BME280;19250;42.646;26.980;2023-02-12T10:41:51;100088.56;;;9.48;35.34
12799;BME280;19250;42.646;26.980;2023-02-12T10:44:23;100082.41;;;9.79;34.86
12799;BME280;19250;42.646;26.980;2023-02-12T10:46:50;100095.53;;;9.06;35.90
12799;BME280;19250;42.646;26.980;2023-02-12T10:49:19;100096.38;;;9.07;36.18
12799;BME280;19250;42.646;26.980;2023-02-12T10:52:01;100067.19;;;9.39;35.45
12799;BME280;19250;42.646;26.980;2023-02-12T10:54:38;100103.34;;;9.41;35.67
12799;BME280;19250;42.646;26.980;2023-02-12T10:57:19;100098.16;;;9.28;35.97
12799;BME280;19250;42.646;26.980;2023-02-12T10:59:49;100095.50;;;9.17;36.50
12799;BME280;19250;42.646;26.980;2023-02-12T11:02:20;100101.81;;;8.94;36.72
12799;BME280;19250;42.646;26.980;2023-02-12T11:04:49;100100.94;;;9.81;35.68
12799;BME280;19250;42.646;26.980;2023-02-12T11:07:17;100103.09;;;9.87;35.56
12799;BME280;19250;42.646;26.980;2023-02-12T11:09:45;100105.22;;;9.61;36.04
12799;BME280;19250;42.646;26.980;2023-02-12T11:12:25;100093.63;;;9.62;36.26
12799;BME280;19250;42.646;26.980;2023-02-12T11:14:57;100114.63;;;9.76;35.90
12799;BME280;19250;42.646;26.980;2023-02-12T11:17:27;100108.63;;;9.95;35.35
12799;BME280;19250;42.646;26.980;2023-02-12T11:20:07;100109.66;;;10.15;35.14
12799;BME280;19250;42.646;26.980;2023-02-12T11:22:50;100107.44;;;11.22;33.92
12799;BME280;19250;42.646;26.980;2023-02-12T11:25:18;100107.59;;;11.79;33.19
12799;BME280;19250;42.646;26.980;2023-02-12T11:27:58;100021.44;;;11.18;33.21
12799;BME280;19250;42.646;26.980;2023-02-12T11:30:28;100109.53;;;13.82;30.40
12799;BME280;19250;42.646;26.980;2023-02-12T11:33:14;100111.63;;;13.43;30.42
12799;BME280;19250;42.646;26.980;2023-02-12T11:35:49;100107.03;;;13.36;30.28
12799;BME280;19250;42.646;26.980;2023-02-12T11:38:22;100102.78;;;14.49;29.45
12799;BME280;19250;42.646;26.980;2023-02-12T11:40:54;100104.81;;;14.11;30.05
12799;BME280;19250;42.646;26.980;2023-02-12T11:43:22;100120.66;;;14.40;29.53
12799;BME280;19250;42.646;26.980;2023-02-12T11:45:53;100117.28;;;14.03;29.72
12799;BME280;19250;42.646;26.980;2023-02-12T11:48:24;100112.66;;;12.11;32.11
12799;BME280;19250;42.646;26.980;2023-02-12T11:50:53;100113.88;;;11.10;33.69
12799;BME280;19250;42.646;26.980;2023-02-12T11:53:24;100091.75;;;10.06;35.27
12799;BME280;19250;42.646;26.980;2023-02-12T11:55:56;100118.00;;;10.42;35.83
12799;BME280;19250;42.646;26.980;2023-02-12T11:58:25;100120.66;;;10.93;35.08
12799;BME280;19250;42.646;26.980;2023-02-12T12:01:00;100125.81;;;11.55;34.27
12799;BME280;19250;42.646;26.980;2023-02-12T12:03:33;100124.16;;;11.24;34.42
12799;BME280;19250;42.646;26.980;2023-02-12T12:06:06;100124.50;;;10.70;35.44
12799;BME280;19250;42.646;26.980;2023-02-12T12:08:40;100129.44;;;10.01;36.87
12799;BME280;19250;42.646;26.980;2023-02-12T12:11:14;100138.31;;;9.91;37.55
12799;BME280;19250;42.646;26.980;2023-02-12T12:13:48;100127.94;;;9.76;37.97
12799;BME280;19250;42.646;26.980;2023-02-12T12:16:23;100131.88;;;9.50;38.37
12799;BME280;19250;42.646;26.980;2023-02-12T12:19:14;100137.41;;;8.47;40.47
12799;BME280;19250;42.646;26.980;2023-02-12T12:22:25;100137.16;;;8.28;41.65
12799;BME280;19250;42.646;26.980;2023-02-12T12:24:57;100137.19;;;8.50;42.24
12799;BME280;19250;42.646;26.980;2023-02-12T12:27:32;100136.41;;;8.94;41.67
12799;BME280;19250;42.646;26.980;2023-02-12T12:30:42;100151.47;;;8.49;41.61
12799;BME280;19250;42.646;26.980;2023-02-12T12:33:18;100162.56;;;8.43;41.62
12799;BME280;19250;42.646;26.980;2023-02-12T12:35:59;100158.53;;;8.14;42.57
12799;BME280;19250;42.646;26.980;2023-02-12T12:38:39;100088.03;;;7.51;43.09
12799;BME280;19250;42.646;26.980;2023-02-12T12:41:18;100151.81;;;7.74;44.95
12799;BME280;19250;42.646;26.980;2023-02-12T12:44:02;100163.31;;;7.98;45.56
12799;BME280;19250;42.646;26.980;2023-02-12T12:46:49;100164.84;;;8.13;46.49
12799;BME280;19250;42.646;26.980;2023-02-12T12:49:46;100171.88;;;7.54;48.73
12799;BME280;19250;42.646;26.980;2023-02-12T12:52:41;100077.50;;;7.26;49.48
12799;BME280;19250;42.646;26.980;2023-02-12T12:55:33;100169.31;;;7.89;49.83
12799;BME280;19250;42.646;26.980;2023-02-12T12:58:13;100171.84;;;7.66;51.16
12799;BME280;19250;42.646;26.980;2023-02-12T13:00:56;100177.13;;;7.66;52.99
12799;BME280;19250;42.646;26.980;2023-02-12T13:06:40;100190.81;;;8.20;49.22
12799;BME280;19250;42.646;26.980;2023-02-12T13:12:55;100193.88;;;8.27;49.01
12799;BME280;19250;42.646;26.980;2023-02-12T13:15:32;100198.91;;;8.19;48.93
12799;BME280;19250;42.646;26.980;2023-02-12T13:18:11;100201.75;;;7.68;50.66
12799;BME280;19250;42.646;26.980;2023-02-12T13:20:48;100212.88;;;8.10;49.65
12799;BME280;19250;42.646;26.980;2023-02-12T13:23:23;100203.25;;;8.20;48.66
12799;BME280;19250;42.646;26.980;2023-02-12T13:26:00;100217.34;;;8.33;49.01
12799;BME280;19250;42.646;26.980;2023-02-12T13:28:33;100221.47;;;8.37;48.42
12799;BME280;19250;42.646;26.980;2023-02-12T13:31:05;100224.88;;;8.27;48.56